Overview Statistics Trail Chart Weather Telemetry Raw packets
 

This is the latest recevied weather packets stored in our database for station/object SP6FIG. If no packets are shown the sender has not sent any weather packets the latest 10 day(s).

<< 16 17 18 19 >>
Time Temp. Humidity Pressure Rain* Wind** Luminosity Snow
1777378277 21.67° C 25% 974.7 hPa - - - -
1777377677 21.11° C 26% 974.8 hPa - - - -
1777377077 21.67° C 27% 974.7 hPa - - - -
1777376477 21.11° C 28% 974.7 hPa - - - -
1777375877 21.11° C 27% 974.9 hPa - - - -
1777375277 21.11° C 28% 974.8 hPa - - - -
1777374677 21.11° C 27% 975 hPa - - - -
1777374077 20.56° C 28% 975 hPa - - - -
1777373477 20.56° C 28% 975 hPa - - - -
1777372877 20.56° C 28% 975 hPa - - - -
1777372277 20.56° C 29% 975 hPa - - - -
1777371677 20.56° C 28% 975 hPa - - - -
1777371077 21.11° C 29% 974.9 hPa - - - -
1777370477 21.11° C 29% 974.9 hPa - - - -
1777369877 20.56° C 29% 975.1 hPa - - - -
1777369277 20.56° C 28% 975 hPa - - - -
1777368677 20.56° C 29% 975.1 hPa - - - -
1777368077 20.56° C 28% 975.1 hPa - - - -
1777367477 21.67° C 32% 975.2 hPa - - - -
1777366877 21.11° C 32% 975.1 hPa - - - -
1777313833 22.78° C 33% 972.1 hPa - - - -
1777313233 21.11° C 34% 972 hPa - - - -
1777312633 21.11° C 35% 972 hPa - - - -
1777311062 22.22° C 35% 971.9 hPa - - - -
1777310462 21.11° C 37% 972 hPa - - - -

* Rain since midnight (hover to see other rain measurements)
** Current wind speed in m/s (hover to see current wind gust speed)